Pablo, Montana
Current Conditions -  °F | °C
As of 9:53 AM on Thursday 30 Oct 2014 (Local Time) from KMSO Reporting Station
Haze Haze  
Wind Chill: 39°   Ceiling: 11000
Heat Index: 39°   Visibility: 5mi
Dew Point: 39°   Wind: 0mph
Humidity: 100%   Direction: NA
Pressure: 30.26"   Gusts: NA
Location:  47.59°N, 114.12°W
Report Text: KMSO 301553Z 00000KT 5SM BR FEW001 BKN110 04/04 A3026 RMK AO2 SLP264 T00390039
Loading
Personal Weather Stations






























Interactive Weather Map
Tropical Storm Tracking
New forecast layout! Learn more

10-Day Weather Forecast

Advertisements
Track Severe Weather on mobile